createdAt,value
2022-10-12T00:00:02.528Z,3.45
2022-10-12T00:02:29.809Z,3.17
2022-10-12T00:04:57.051Z,3.67
2022-10-12T00:07:24.373Z,2.80
2022-10-12T00:09:51.613Z,4.32
2022-10-12T00:12:18.868Z,4.03
2022-10-12T00:14:46.146Z,4.78
2022-10-12T00:17:13.644Z,3.85
2022-10-12T00:19:40.899Z,3.75
2022-10-12T00:22:08.203Z,3.53
2022-10-12T00:24:38.299Z,3.80
2022-10-12T00:27:07.791Z,3.85
2022-10-12T00:29:35.416Z,4.57
2022-10-12T00:32:02.762Z,3.90
2022-10-12T00:34:30.021Z,4.03
2022-10-12T00:36:57.331Z,2.63
2022-10-12T00:39:24.597Z,4.70
2022-10-12T00:41:51.936Z,2.85
2022-10-12T00:44:40.001Z,3.42
2022-10-12T00:47:19.138Z,3.13
2022-10-12T00:49:52.250Z,2.95
2022-10-12T00:52:23.196Z,4.53
2022-10-12T00:54:54.020Z,3.28
2022-10-12T00:57:22.639Z,3.90
2022-10-12T01:00:00.733Z,3.45
2022-10-12T01:02:29.994Z,3.10
2022-10-12T01:04:57.735Z,3.17
2022-10-12T01:07:25.123Z,3.92
2022-10-12T01:09:52.550Z,4.38
2022-10-12T01:12:20.609Z,4.57
2022-10-12T01:14:48.026Z,3.38
2022-10-12T01:17:45.835Z,3.42
2022-10-12T01:20:40.927Z,4.45
2022-10-12T01:23:27.012Z,3.72
2022-10-12T01:26:18.844Z,5.07
2022-10-12T01:29:13.868Z,3.03
2022-10-12T01:31:48.553Z,4.10
2022-10-12T01:37:37.818Z,2.92
2022-10-12T01:40:11.915Z,3.53
2022-10-12T01:42:42.858Z,4.72
2022-10-12T01:45:16.369Z,4.18
2022-10-12T01:47:48.567Z,3.47
2022-10-12T01:50:16.991Z,3.95
2022-10-12T01:53:10.479Z,5.47
2022-10-12T01:55:56.141Z,3.05
2022-10-12T01:58:46.825Z,4.20
2022-10-12T02:01:42.510Z,4.82
2022-10-12T02:04:28.514Z,4.20
2022-10-12T02:07:08.700Z,3.13
2022-10-12T02:09:37.389Z,3.83
2022-10-12T02:12:14.116Z,4.57
2022-10-12T02:14:47.428Z,3.17
2022-10-12T02:17:17.166Z,3.00
2022-10-12T02:19:49.385Z,6.15
2022-10-12T02:22:17.830Z,3.85
2022-10-12T02:24:49.220Z,4.65
2022-10-12T02:27:18.476Z,4.60
2022-10-12T02:29:47.670Z,4.05
2022-10-12T02:32:28.905Z,3.30
2022-10-12T02:35:23.058Z,4.32
2022-10-12T02:38:00.366Z,2.60
2022-10-12T02:40:43.487Z,5.57
2022-10-12T02:43:28.199Z,3.70
2022-10-12T02:45:57.980Z,2.88
2022-10-12T02:48:26.061Z,2.40
2022-10-12T02:50:57.661Z,3.10
2022-10-12T02:53:26.706Z,4.68
2022-10-12T02:55:59.746Z,3.78
2022-10-12T02:58:27.077Z,3.55
2022-10-12T03:00:54.537Z,4.07
2022-10-12T03:03:21.844Z,3.85
2022-10-12T03:05:49.227Z,2.58
2022-10-12T03:08:16.508Z,2.95
2022-10-12T03:10:43.867Z,3.13
2022-10-12T03:13:11.193Z,4.95
2022-10-12T03:15:38.511Z,4.40
2022-10-12T03:18:05.837Z,3.13
2022-10-12T03:20:33.116Z,3.97
2022-10-12T03:23:00.395Z,4.07
2022-10-12T03:25:27.759Z,4.00
2022-10-12T03:27:55.081Z,3.30
2022-10-12T03:30:22.350Z,3.72
2022-10-12T03:32:49.661Z,3.65
2022-10-12T03:35:17.673Z,4.00
2022-10-12T03:37:44.902Z,4.43
2022-10-12T03:40:12.677Z,4.15
2022-10-12T03:42:39.932Z,5.10
2022-10-12T03:45:07.541Z,3.53
2022-10-12T03:47:34.945Z,4.07
2022-10-12T03:50:02.322Z,3.95
2022-10-12T03:52:29.583Z,4.50
2022-10-12T03:54:56.877Z,4.68
2022-10-12T03:57:24.180Z,3.63
2022-10-12T03:59:51.644Z,4.55
2022-10-12T04:02:18.894Z,4.40
2022-10-12T04:04:46.134Z,5.40
2022-10-12T04:07:13.544Z,3.67
2022-10-12T04:09:40.954Z,5.22
2022-10-12T04:12:08.238Z,4.53
2022-10-12T04:14:35.511Z,4.00
2022-10-12T04:17:04.064Z,2.80
2022-10-12T04:19:31.395Z,5.60
2022-10-12T04:21:58.693Z,4.57
2022-10-12T04:24:25.922Z,3.70
2022-10-12T04:26:53.184Z,2.47
2022-10-12T04:29:20.662Z,2.97
2022-10-12T04:31:47.940Z,4.20
2022-10-12T04:34:15.196Z,3.95
2022-10-12T04:36:42.525Z,5.05
2022-10-12T04:39:09.846Z,3.53
2022-10-12T04:41:37.200Z,3.40
2022-10-12T04:44:04.567Z,4.82
2022-10-12T04:46:32.168Z,3.78
2022-10-12T04:48:59.430Z,3.25
2022-10-12T04:51:27.129Z,3.65
2022-10-12T04:53:54.451Z,3.83
2022-10-12T04:56:21.886Z,5.43
2022-10-12T04:58:49.232Z,4.93
2022-10-12T05:01:16.718Z,3.97
2022-10-12T05:03:44.296Z,4.25
2022-10-12T05:06:11.866Z,3.90
2022-10-12T05:08:39.274Z,4.68
2022-10-12T05:11:07.428Z,3.53
2022-10-12T05:13:34.717Z,5.75
2022-10-12T05:16:02.039Z,3.83
2022-10-12T05:18:29.336Z,3.75
2022-10-12T05:20:57.296Z,3.55
2022-10-12T05:23:24.835Z,4.85
2022-10-12T05:25:54.238Z,4.13
2022-10-12T05:28:21.749Z,4.38
2022-10-12T05:30:53.231Z,4.28
2022-10-12T05:33:20.819Z,3.50
2022-10-12T05:35:56.085Z,3.78
2022-10-12T05:38:23.741Z,4.43
2022-10-12T05:40:51.181Z,6.15
2022-10-12T05:43:18.719Z,5.55
2022-10-12T05:45:46.039Z,4.30
2022-10-12T05:48:14.308Z,6.05
2022-10-12T05:50:41.848Z,3.60
2022-10-12T05:53:09.158Z,4.05
2022-10-12T05:55:36.541Z,4.47
2022-10-12T05:58:03.883Z,6.22
2022-10-12T06:00:31.209Z,4.43
2022-10-12T06:02:58.480Z,4.75
2022-10-12T06:05:25.875Z,5.60
2022-10-12T06:07:53.127Z,5.47
2022-10-12T06:10:20.512Z,4.85
2022-10-12T06:12:47.770Z,5.05
2022-10-12T06:15:15.107Z,4.55
2022-10-12T06:17:42.601Z,3.92
2022-10-12T06:20:10.387Z,5.50
2022-10-12T06:22:37.944Z,4.93
2022-10-12T06:25:05.849Z,4.93
2022-10-12T06:27:33.171Z,6.30
2022-10-12T06:30:00.428Z,5.70
2022-10-12T06:32:27.821Z,5.95
2022-10-12T06:34:55.141Z,9.90
2022-10-12T06:37:48.023Z,6.57
2022-10-12T06:40:10.275Z,7.40
2022-10-12T06:42:37.797Z,7.45
2022-10-12T06:45:05.886Z,6.72
2022-10-12T06:47:33.152Z,8.05
2022-10-12T06:50:00.371Z,6.82
2022-10-12T06:52:27.626Z,9.52
2022-10-12T06:54:54.863Z,9.13
2022-10-12T06:57:22.223Z,7.57
2022-10-12T06:59:49.483Z,11.43
2022-10-12T07:02:16.740Z,9.27
2022-10-12T07:04:44.094Z,9.43
2022-10-12T07:07:11.375Z,9.43
2022-10-12T07:09:38.712Z,7.90
2022-10-12T07:12:06.166Z,7.68
2022-10-12T07:14:33.427Z,8.05
2022-10-12T07:17:00.642Z,8.63
2022-10-12T07:19:27.921Z,8.73
2022-10-12T07:21:55.171Z,10.15
2022-10-12T07:24:22.435Z,8.82
2022-10-12T07:26:51.374Z,7.68
2022-10-12T07:29:18.622Z,6.47
2022-10-12T07:31:49.860Z,8.38
2022-10-12T07:34:19.207Z,9.50
2022-10-12T07:36:59.158Z,8.27
2022-10-12T07:39:29.509Z,8.27
2022-10-12T07:41:57.322Z,7.38
2022-10-12T07:44:24.670Z,8.07
2022-10-12T07:46:52.460Z,8.40
2022-10-12T07:49:20.062Z,8.15
2022-10-12T07:51:47.516Z,9.48
2022-10-12T07:54:19.248Z,8.65
2022-10-12T07:56:47.956Z,9.27
2022-10-12T07:59:15.276Z,8.75
2022-10-12T08:01:42.640Z,9.52
2022-10-12T08:04:10.500Z,8.07
2022-10-12T08:06:37.946Z,7.35
2022-10-12T08:09:05.253Z,8.48
2022-10-12T08:11:32.554Z,7.80
2022-10-12T08:13:59.808Z,7.88
2022-10-12T08:16:27.173Z,8.52
2022-10-12T08:18:54.445Z,8.38
2022-10-12T08:21:21.767Z,7.95
2022-10-12T08:23:49.726Z,8.07
2022-10-12T08:26:17.055Z,8.45
2022-10-12T08:28:44.493Z,7.70
2022-10-12T08:31:14.820Z,10.00
2022-10-12T08:33:42.185Z,7.78
2022-10-12T08:36:10.760Z,8.45
2022-10-12T08:38:38.926Z,7.03
2022-10-12T08:41:31.292Z,7.95
2022-10-12T08:44:46.193Z,6.53
2022-10-12T08:47:25.581Z,9.13
2022-10-12T08:49:53.990Z,7.40
2022-10-12T08:52:28.713Z,9.75
2022-10-12T08:55:00.731Z,7.47
2022-10-12T08:57:28.187Z,7.75
2022-10-12T08:59:55.635Z,6.63
2022-10-12T09:02:49.432Z,10.05
2022-10-12T09:05:27.696Z,8.57
2022-10-12T09:08:07.343Z,7.13
2022-10-12T09:10:46.931Z,8.05
2022-10-12T09:13:37.049Z,9.27
2022-10-12T09:16:18.001Z,7.43
2022-10-12T09:18:50.198Z,9.35
2022-10-12T09:21:20.375Z,9.27
2022-10-12T09:23:48.405Z,8.07
2022-10-12T09:26:21.476Z,10.48
2022-10-12T09:28:56.525Z,9.35
2022-10-12T09:32:02.708Z,7.78
2022-10-12T09:34:30.146Z,8.13
2022-10-12T09:36:57.344Z,9.20
2022-10-12T09:39:35.517Z,8.15
2022-10-12T09:42:03.533Z,8.85
2022-10-12T09:44:47.981Z,7.70
2022-10-12T09:47:33.235Z,11.55
2022-10-12T09:50:06.988Z,7.35
2022-10-12T09:52:37.344Z,7.60
2022-10-12T09:55:19.332Z,9.70
2022-10-12T09:57:57.686Z,10.55
2022-10-12T10:00:28.306Z,9.90
2022-10-12T10:02:57.007Z,9.63
2022-10-12T10:05:26.331Z,9.63
2022-10-12T10:08:12.484Z,10.63
2022-10-12T10:10:55.657Z,12.18
2022-10-12T10:13:26.473Z,12.23
2022-10-12T10:16:08.894Z,14.27
2022-10-12T10:18:48.726Z,12.88
2022-10-12T10:21:25.350Z,11.90
2022-10-12T10:23:56.907Z,10.90
2022-10-12T10:26:26.606Z,20.73
2022-10-12T10:29:26.678Z,9.88
2022-10-12T10:32:30.092Z,12.63
2022-10-12T10:35:20.450Z,13.05
2022-10-12T10:37:51.502Z,13.93
2022-10-12T10:40:29.144Z,8.48
2022-10-12T10:42:58.412Z,12.27
2022-10-12T10:45:29.394Z,10.43
2022-10-12T10:48:01.524Z,12.57
2022-10-12T10:50:40.945Z,14.93
2022-10-12T10:53:19.998Z,12.07
2022-10-12T10:55:59.808Z,11.50
2022-10-12T10:58:57.286Z,13.70
2022-10-12T11:01:40.125Z,10.43
2022-10-12T11:04:19.554Z,10.13
2022-10-12T11:07:06.518Z,12.15
2022-10-12T11:09:47.523Z,12.60
2022-10-12T11:12:21.394Z,11.18
2022-10-12T11:14:55.392Z,10.60
2022-10-12T11:17:31.230Z,14.35
2022-10-12T11:20:26.177Z,14.50
2022-10-12T11:23:09.771Z,10.85
2022-10-12T11:25:49.027Z,15.90
2022-10-12T11:28:17.137Z,14.27
2022-10-12T11:30:49.841Z,16.50
2022-10-12T11:33:38.570Z,13.93
2022-10-12T11:36:15.487Z,9.68
2022-10-12T11:38:51.511Z,11.40
2022-10-12T11:41:35.447Z,11.82
2022-10-12T11:44:05.971Z,13.57
2022-10-12T11:47:01.541Z,10.32
2022-10-12T11:49:34.565Z,9.90
2022-10-12T11:52:10.089Z,7.80
2022-10-12T11:54:43.930Z,9.25
2022-10-12T11:57:17.698Z,10.25
2022-10-12T11:59:55.439Z,8.30
2022-10-12T12:02:32.943Z,6.43
2022-10-12T12:05:02.323Z,8.63
2022-10-12T12:07:55.181Z,7.38
2022-10-12T12:10:30.626Z,8.88
2022-10-12T12:13:13.271Z,9.18
2022-10-12T12:15:43.076Z,8.52
2022-10-12T12:18:21.229Z,7.75
2022-10-12T12:20:48.441Z,9.77
2022-10-12T12:23:26.539Z,8.23
2022-10-12T12:26:16.554Z,9.50
2022-10-12T12:28:48.020Z,7.20
2022-10-12T12:31:28.976Z,10.15
2022-10-12T12:34:16.183Z,12.20
2022-10-12T12:36:46.746Z,9.43
2022-10-12T12:39:25.874Z,10.57
2022-10-12T12:42:01.326Z,12.00
2022-10-12T12:44:37.868Z,11.73
2022-10-12T12:47:26.045Z,11.48
2022-10-12T12:50:01.978Z,10.63
2022-10-12T12:52:35.354Z,10.65
2022-10-12T12:55:05.711Z,11.90
2022-10-12T12:57:45.718Z,11.80
2022-10-12T13:00:34.249Z,12.45
2022-10-12T13:03:15.043Z,12.07
2022-10-12T13:06:08.633Z,9.35
2022-10-12T13:09:04.827Z,8.85
2022-10-12T13:11:48.446Z,8.23
2022-10-12T13:14:18.658Z,13.38
2022-10-12T13:22:36.535Z,11.20
2022-10-12T13:25:07.787Z,11.00
2022-10-12T13:27:46.971Z,9.02
2022-10-12T13:30:23.134Z,9.98
2022-10-12T13:33:09.651Z,10.70
2022-10-12T13:36:08.606Z,10.25
2022-10-12T13:38:40.278Z,10.43
2022-10-12T13:41:16.014Z,11.40
2022-10-12T13:43:50.202Z,9.07
2022-10-12T13:46:43.868Z,12.40
2022-10-12T13:49:17.160Z,9.60
2022-10-12T13:51:47.103Z,11.93
2022-10-12T13:54:19.065Z,10.60
2022-10-12T13:56:49.286Z,8.65
2022-10-12T13:59:21.594Z,11.35
2022-10-12T14:01:51.263Z,9.98
2022-10-12T14:04:18.767Z,10.98
2022-10-12T14:06:56.062Z,11.88
2022-10-12T14:09:25.575Z,11.63
2022-10-12T14:11:55.640Z,7.65
2022-10-12T14:14:33.926Z,12.93
2022-10-12T14:17:01.712Z,8.60
2022-10-12T14:19:36.311Z,8.38
2022-10-12T14:22:03.991Z,10.68
2022-10-12T14:24:32.271Z,9.32
2022-10-12T14:27:01.924Z,8.20
2022-10-12T14:29:41.415Z,9.15
2022-10-12T14:32:11.450Z,10.15
2022-10-12T14:34:48.148Z,9.73
2022-10-12T14:37:15.365Z,11.32
2022-10-12T14:39:48.806Z,13.38
2022-10-12T14:42:28.192Z,8.35
2022-10-12T14:44:55.912Z,14.38
2022-10-12T14:47:40.516Z,11.93
2022-10-12T14:50:16.391Z,11.40
2022-10-12T14:52:46.797Z,15.05
2022-10-12T14:55:25.120Z,10.80
2022-10-12T14:57:52.836Z,12.70
2022-10-12T15:00:29.811Z,11.68
2022-10-12T15:02:57.977Z,15.75
2022-10-12T15:05:29.043Z,10.52
2022-10-12T15:07:56.431Z,12.25
2022-10-12T15:10:24.935Z,9.32
2022-10-12T15:12:52.915Z,13.00
2022-10-12T15:15:35.186Z,11.52
2022-10-12T15:18:02.849Z,10.30
2022-10-12T15:20:32.015Z,9.68
2022-10-12T15:23:00.125Z,9.07
2022-10-12T15:25:36.436Z,9.02
2022-10-12T15:28:04.941Z,9.02
2022-10-12T15:30:33.154Z,8.77
2022-10-12T15:33:00.832Z,9.23
2022-10-12T15:35:31.440Z,8.55
2022-10-12T15:37:58.753Z,6.97
2022-10-12T15:40:29.357Z,6.63
2022-10-12T15:42:56.965Z,8.38
2022-10-12T15:45:28.845Z,9.38
2022-10-12T15:47:56.176Z,6.55
2022-10-12T15:50:28.772Z,8.77
2022-10-12T15:52:56.811Z,8.25
2022-10-12T15:55:27.399Z,8.07
2022-10-12T15:57:54.853Z,7.68
2022-10-12T16:00:27.785Z,8.05
2022-10-12T16:02:56.636Z,7.22
2022-10-12T16:05:27.927Z,9.20
2022-10-12T16:07:55.926Z,6.28
2022-10-12T16:10:26.968Z,7.32
2022-10-12T16:12:55.288Z,5.78
2022-10-12T16:15:33.624Z,7.88
2022-10-12T16:18:02.293Z,6.10
2022-10-12T16:20:31.562Z,7.97
2022-10-12T16:23:00.398Z,6.65
2022-10-12T16:25:28.247Z,7.43
2022-10-12T16:27:57.851Z,7.22
2022-10-12T16:30:26.545Z,6.65
2022-10-12T16:32:53.948Z,8.73
2022-10-12T16:35:21.289Z,6.38
2022-10-12T16:37:48.919Z,6.72
2022-10-12T16:40:16.555Z,6.90
2022-10-12T16:42:43.868Z,5.57
2022-10-12T16:45:11.736Z,6.50
2022-10-12T16:47:42.889Z,7.28
2022-10-12T16:50:10.709Z,6.38
2022-10-12T16:52:38.187Z,5.72
2022-10-12T16:55:06.397Z,6.13
2022-10-12T16:57:33.635Z,5.45
2022-10-12T17:00:01.663Z,6.80
2022-10-12T17:02:28.958Z,6.63
2022-10-12T17:04:56.321Z,6.07
2022-10-12T17:07:23.670Z,6.93
2022-10-12T17:09:51.140Z,5.22
2022-10-12T17:12:19.042Z,5.20
2022-10-12T17:14:46.445Z,6.65
2022-10-12T17:17:13.777Z,6.10
2022-10-12T17:19:41.211Z,7.28
2022-10-12T17:22:10.826Z,6.55
2022-10-12T17:24:40.363Z,5.97
2022-10-12T17:27:09.668Z,5.53
2022-10-12T17:29:39.515Z,6.18
2022-10-12T17:32:07.979Z,4.93
2022-10-12T17:34:41.812Z,4.93
2022-10-12T17:37:12.513Z,4.90
2022-10-12T17:39:43.466Z,5.88
2022-10-12T17:42:10.899Z,4.25
2022-10-12T17:44:38.300Z,4.65
2022-10-12T17:47:05.622Z,6.38
2022-10-12T17:49:33.259Z,5.57
2022-10-12T17:52:00.525Z,6.40
2022-10-12T17:54:27.847Z,5.68
2022-10-12T17:56:56.492Z,5.55
2022-10-12T17:59:24.108Z,5.70
2022-10-12T18:01:53.402Z,5.03
2022-10-12T18:04:21.069Z,6.50
2022-10-12T18:06:48.376Z,5.50
2022-10-12T18:09:16.255Z,5.18
2022-10-12T18:11:44.401Z,6.90
2022-10-12T18:14:13.243Z,5.88
2022-10-12T18:16:40.783Z,6.57
2022-10-12T18:19:10.315Z,5.70
2022-10-12T18:21:38.639Z,5.18
2022-10-12T18:24:12.332Z,6.45
2022-10-12T18:26:46.672Z,4.80
2022-10-12T18:29:14.301Z,5.20
2022-10-12T18:31:41.723Z,7.88
2022-10-12T18:34:09.496Z,6.47
2022-10-12T18:36:36.908Z,5.18
2022-10-12T18:39:04.917Z,6.65
2022-10-12T18:41:32.943Z,6.63
2022-10-12T18:44:02.347Z,5.40
2022-10-12T18:46:32.199Z,4.78
2022-10-12T18:49:02.699Z,6.63
2022-10-12T18:51:33.100Z,7.72
2022-10-12T18:54:02.065Z,5.75
2022-10-12T18:56:31.618Z,6.30
2022-10-12T18:59:00.133Z,6.50
2022-10-12T19:01:29.063Z,7.40
2022-10-12T19:03:58.100Z,6.45
2022-10-12T19:06:36.461Z,6.10
2022-10-12T19:09:04.946Z,6.22
2022-10-12T19:11:32.722Z,6.15
2022-10-12T19:14:02.940Z,4.95
2022-10-12T19:16:32.134Z,6.45
2022-10-12T19:19:06.181Z,7.40
2022-10-12T19:21:34.544Z,11.35
2022-10-12T19:24:06.073Z,7.40
2022-10-12T19:26:34.345Z,8.20
2022-10-12T19:29:02.076Z,10.95
2022-10-12T19:31:32.992Z,8.80
2022-10-12T19:34:02.417Z,10.13
2022-10-12T19:36:31.098Z,10.45
2022-10-12T19:38:59.865Z,12.20
2022-10-12T19:41:28.818Z,5.38
2022-10-12T19:43:59.536Z,8.93
2022-10-12T19:46:27.372Z,7.88
2022-10-12T19:48:58.187Z,7.43
2022-10-12T19:51:27.547Z,9.60
2022-10-12T19:53:56.960Z,6.68
2022-10-12T19:56:24.986Z,9.25
2022-10-12T19:58:55.288Z,8.55
2022-10-12T20:01:25.607Z,6.18
2022-10-12T20:03:53.678Z,8.70
2022-10-12T20:06:24.534Z,9.35
2022-10-12T20:08:53.709Z,5.93
2022-10-12T20:11:24.732Z,5.80
2022-10-12T20:13:53.067Z,6.90
2022-10-12T20:16:21.322Z,7.65
2022-10-12T20:18:49.650Z,6.43
2022-10-12T20:21:20.976Z,6.40
2022-10-12T20:23:49.065Z,7.32
2022-10-12T20:26:22.767Z,7.25
2022-10-12T20:28:51.213Z,7.17
2022-10-12T20:31:21.479Z,9.18
2022-10-12T20:33:51.991Z,4.55
2022-10-12T20:36:22.823Z,5.22
2022-10-12T20:38:50.514Z,6.72
2022-10-12T20:41:18.757Z,5.93
2022-10-12T20:43:46.163Z,8.20
2022-10-12T20:46:16.758Z,6.47
2022-10-12T20:48:45.152Z,5.78
2022-10-12T20:51:42.742Z,4.70
2022-10-12T20:54:14.897Z,5.65
2022-10-12T20:56:43.108Z,4.28
2022-10-12T20:59:11.115Z,6.43
2022-10-12T21:01:38.478Z,6.22
2022-10-12T21:04:05.939Z,5.50
2022-10-12T21:06:34.615Z,6.70
2022-10-12T21:09:01.881Z,6.57
2022-10-12T21:11:29.217Z,6.13
2022-10-12T21:13:56.515Z,5.90
2022-10-12T21:16:24.332Z,4.13
2022-10-12T21:18:54.854Z,5.32
2022-10-12T21:21:22.350Z,4.78
2022-10-12T21:23:58.060Z,4.28
2022-10-12T21:26:27.258Z,5.32
2022-10-12T21:28:54.726Z,4.70
2022-10-12T21:31:22.201Z,4.25
2022-10-12T21:33:49.470Z,4.97
2022-10-12T21:36:23.393Z,3.78
2022-10-12T21:38:51.175Z,3.83
2022-10-12T21:41:21.189Z,5.25
2022-10-12T21:43:50.048Z,4.30
2022-10-12T21:46:23.754Z,3.95
2022-10-12T21:48:51.536Z,4.47
2022-10-12T21:51:20.282Z,5.35
2022-10-12T21:53:48.128Z,4.55
2022-10-12T21:56:24.384Z,5.40
2022-10-12T21:58:53.472Z,4.63
2022-10-12T22:01:23.290Z,3.83
2022-10-12T22:03:55.612Z,4.10
2022-10-12T22:06:25.131Z,3.97
2022-10-12T22:08:55.467Z,4.05
2022-10-12T22:11:24.022Z,4.28
2022-10-12T22:13:51.666Z,4.40
2022-10-12T22:16:19.381Z,4.65
2022-10-12T22:18:46.672Z,4.03
2022-10-12T22:21:16.833Z,4.28
2022-10-12T22:23:45.124Z,4.00
2022-10-12T22:26:15.936Z,5.75
2022-10-12T22:28:43.821Z,4.40
2022-10-12T22:31:14.602Z,3.85
2022-10-12T22:33:41.945Z,5.63
2022-10-12T22:36:10.184Z,6.07
2022-10-12T22:38:37.442Z,4.35
2022-10-12T22:41:07.644Z,3.83
2022-10-12T22:43:35.639Z,4.05
2022-10-12T22:46:03.106Z,4.43
2022-10-12T22:48:30.449Z,4.38
2022-10-12T22:50:57.675Z,3.97
2022-10-12T22:53:26.297Z,3.20
2022-10-12T22:56:08.048Z,4.07
2022-10-12T23:01:30.953Z,3.78
2022-10-12T23:03:58.279Z,4.40
2022-10-12T23:06:26.037Z,4.07
2022-10-12T23:08:53.483Z,3.90
2022-10-12T23:11:26.311Z,5.57
2022-10-12T23:13:54.914Z,4.35
2022-10-12T23:16:27.890Z,3.97
2022-10-12T23:19:01.287Z,5.43
2022-10-12T23:21:30.395Z,4.50
2022-10-12T23:23:59.637Z,3.55
2022-10-12T23:29:12.786Z,3.95
2022-10-12T23:31:40.040Z,5.22
2022-10-12T23:34:07.928Z,4.10
2022-10-12T23:36:35.612Z,4.25
2022-10-12T23:39:04.418Z,4.90
2022-10-12T23:41:31.695Z,4.63
2022-10-12T23:43:58.932Z,5.38
2022-10-12T23:46:26.369Z,4.05
2022-10-12T23:48:53.616Z,5.75
2022-10-12T23:51:20.855Z,4.90
2022-10-12T23:53:48.347Z,5.05
2022-10-12T23:56:15.637Z,5.10
2022-10-12T23:58:42.991Z,4.22
